Time;durP1;ratioP1;P1;durP2;ratioP2;P2;SDS_P1;SDS_P2;PMS_P1;PMS_P2;Temp;Humidity;BMP_temperature;BMP_pressure;BME280_temperature;BME280_humidity;BME280_pressure;Samples;Min_cycle;Max_cycle;Signal;HPM_P1;HPM_P2
2023/04/22 00:00:57;;;;;;;65.20;45.80;;;;;;;5.77;88.26;98834.86;109338;1252;58221;-74
2023/04/22 00:03:25;;;;;;;58.10;44.50;;;;;;;5.74;88.40;98832.71;109519;1254;58248;-73
2023/04/22 00:05:53;;;;;;;61.00;43.60;;;;;;;5.70;88.51;98830.29;109378;1253;65231;-73
2023/04/22 00:08:19;;;;;;;62.00;44.20;;;;;;;5.66;88.63;98832.77;109461;1253;60145;-72
2023/04/22 00:10:46;;;;;;;58.60;42.80;;;;;;;5.61;89.29;98832.48;109516;1254;62838;-73
2023/04/22 00:13:12;;;;;;;59.70;43.30;;;;;;;5.55;89.87;98832.77;109501;1252;58237;-73
2023/04/22 00:15:39;;;;;;;62.00;45.00;;;;;;;5.49;90.49;98837.60;109522;1253;58158;-73
2023/04/22 00:18:06;;;;;;;60.60;43.60;;;;;;;5.45;90.76;98833.77;109501;1254;58197;-73
2023/04/22 00:20:32;;;;;;;57.50;42.30;;;;;;;5.44;91.50;98833.65;109496;1252;58924;-73
2023/04/22 00:22:59;;;;;;;53.20;41.00;;;;;;;5.41;91.73;98830.97;109515;1252;64023;-73
2023/04/22 00:25:25;;;;;;;62.10;45.20;;;;;;;5.39;91.82;98833.35;109415;1252;58220;-73
2023/04/22 00:27:52;;;;;;;55.90;42.10;;;;;;;5.37;91.84;98834.88;109142;1257;58251;-73
2023/04/22 00:30:19;;;;;;;57.60;42.60;;;;;;;5.34;92.28;98835.20;109124;1255;64480;-72
2023/04/22 00:32:45;;;;;;;56.40;42.70;;;;;;;5.30;92.93;98837.31;108897;1261;60027;-73
2023/04/22 00:35:11;;;;;;;61.20;44.20;;;;;;;5.27;93.15;98830.59;109130;1256;59014;-72
2023/04/22 00:37:38;;;;;;;64.20;43.20;;;;;;;5.23;93.85;98824.77;109107;1258;58319;-74
2023/04/22 00:40:05;;;;;;;56.40;43.50;;;;;;;5.20;94.00;98826.55;109148;1257;58287;-73
2023/04/22 00:42:32;;;;;;;60.50;43.60;;;;;;;5.16;94.63;98826.52;108257;1256;1003960;-73
2023/04/22 00:44:59;;;;;;;51.80;41.70;;;;;;;5.14;95.01;98824.52;109113;1256;58931;-72
2023/04/22 00:47:26;;;;;;;60.20;45.50;;;;;;;5.12;94.85;98822.68;109123;1256;63498;-73
2023/04/22 00:49:53;;;;;;;57.90;45.40;;;;;;;5.14;95.00;98822.77;108895;1259;58201;-73
2023/04/22 00:52:20;;;;;;;61.90;43.20;;;;;;;5.16;95.83;98825.49;108991;1259;58152;-73
2023/04/22 00:54:48;;;;;;;58.50;45.60;;;;;;;5.14;96.58;98822.04;109007;1259;65693;-73
2023/04/22 00:57:15;;;;;;;58.10;43.60;;;;;;;5.11;97.29;98822.38;108987;1259;59009;-73
2023/04/22 00:59:43;;;;;;;60.40;46.80;;;;;;;5.06;98.13;98825.41;109090;1256;62834;-73
2023/04/22 01:02:10;;;;;;;62.60;46.80;;;;;;;5.01;98.17;98830.58;109095;1256;58305;-73
2023/04/22 01:04:38;;;;;;;63.10;46.40;;;;;;;4.98;98.48;98830.55;109042;1256;58237;-72
2023/04/22 01:07:05;;;;;;;66.00;48.00;;;;;;;4.95;98.74;98834.21;109155;1256;65232;-73
2023/04/22 01:09:32;;;;;;;66.10;48.90;;;;;;;4.91;99.32;98834.73;109153;1256;60703;-73
2023/04/22 01:12:00;;;;;;;66.00;51.60;;;;;;;4.88;99.55;98836.33;109042;1257;62901;-73
2023/04/22 01:14:27;;;;;;;66.40;50.70;;;;;;;4.84;99.63;98835.25;109090;1257;58283;-73
2023/04/22 01:16:54;;;;;;;70.90;52.80;;;;;;;4.81;100.00;98833.63;108876;1256;58350;-73
2023/04/22 01:19:22;;;;;;;70.50;53.10;;;;;;;4.79;100.00;98832.51;109028;1257;64561;-72
2023/04/22 01:21:53;;;;;;;72.60;53.50;;;;;;;4.75;100.00;98833.00;109434;1253;60637;-72
2023/04/22 01:24:20;;;;;;;71.00;57.80;;;;;;;4.72;100.00;98833.52;109355;1254;62806;-72
2023/04/22 01:26:47;;;;;;;68.50;55.40;;;;;;;4.68;100.00;98834.95;109453;1254;58489;-73
2023/04/22 01:29:14;;;;;;;73.30;58.40;;;;;;;4.66;100.00;98834.50;109483;1253;58388;-74
2023/04/22 01:31:40;;;;;;;70.50;56.10;;;;;;;4.64;100.00;98835.48;109420;1254;65269;-74
2023/04/22 01:34:07;;;;;;;74.90;55.10;;;;;;;4.61;100.00;98837.15;109489;1253;60116;-73
2023/04/22 01:36:34;;;;;;;65.40;48.50;;;;;;;4.59;100.00;98837.62;109467;1253;62865;-73
2023/04/22 01:39:00;;;;;;;66.30;50.50;;;;;;;4.56;100.00;98835.64;109403;1252;58331;-74
2023/04/22 01:41:27;;;;;;;75.50;55.30;;;;;;;4.55;100.00;98836.41;109526;1252;58150;-74
2023/04/22 01:43:57;;;;;;;71.10;53.80;;;;;;;4.51;100.00;98842.38;109444;1254;65270;-73
2023/04/22 01:46:23;;;;;;;70.80;53.40;;;;;;;4.47;100.00;98841.52;109504;1254;59000;-73
2023/04/22 01:48:50;;;;;;;70.90;54.80;;;;;;;4.42;100.00;98839.25;109512;1252;64047;-73
2023/04/22 01:51:22;;;;;;;67.30;51.70;;;;;;;4.41;100.00;98839.30;109447;1252;58174;-73
2023/04/22 01:53:49;;;;;;;66.50;50.20;;;;;;;4.43;100.00;98836.43;109412;1252;58309;-73
2023/04/22 01:56:16;;;;;;;68.00;53.10;;;;;;;4.44;100.00;98831.08;109349;1252;65307;-73
2023/04/22 01:58:43;;;;;;;71.60;53.00;;;;;;;4.45;100.00;98838.42;109536;1253;60338;-73
2023/04/22 02:01:10;;;;;;;71.30;51.80;;;;;;;4.42;100.00;98832.55;109470;1251;62868;-73
2023/04/22 02:03:38;;;;;;;66.40;51.60;;;;;;;4.39;100.00;98832.72;109360;1252;58191;-74
2023/04/22 02:06:06;;;;;;;68.30;53.10;;;;;;;4.33;100.00;98833.00;109246;1254;58276;-73
2023/04/22 02:08:33;;;;;;;72.80;54.60;;;;;;;4.25;100.00;98834.71;109452;1254;65585;-73
2023/04/22 02:10:59;;;;;;;70.30;52.80;;;;;;;4.19;100.00;98839.05;109481;1252;58943;-74
2023/04/22 02:13:34;;;;;;;68.50;53.10;;;;;;;4.13;100.00;98837.39;109452;1252;64078;-74
2023/04/22 02:16:00;;;;;;;72.60;54.40;;;;;;;4.08;100.00;98833.02;109466;1254;58182;-73
2023/04/22 02:18:26;;;;;;;68.90;52.40;;;;;;;4.04;100.00;98834.05;109480;1252;58676;-74
2023/04/22 02:20:53;;;;;;;76.00;55.30;;;;;;;3.99;100.00;98834.44;109483;1252;58118;-73
2023/04/22 02:23:20;;;;;;;68.00;51.30;;;;;;;3.96;100.00;98836.15;109495;1253;58134;-73
2023/04/22 02:25:50;;;;;;;65.90;53.30;;;;;;;3.94;100.00;98838.90;109451;1253;62830;-72
2023/04/22 02:28:18;;;;;;;68.70;51.10;;;;;;;3.90;100.00;98838.54;109298;1252;58149;-73
2023/04/22 02:30:44;;;;;;;66.90;52.10;;;;;;;3.85;100.00;98836.27;109100;1257;58185;-73
2023/04/22 02:33:11;;;;;;;69.00;54.40;;;;;;;3.82;100.00;98835.02;109280;1255;65268;-72
2023/04/22 02:35:37;;;;;;;72.40;56.10;;;;;;;3.79;100.00;98836.34;109258;1256;60251;-72
2023/04/22 02:38:04;;;;;;;69.90;55.70;;;;;;;3.82;100.00;98837.83;108950;1255;62836;-73
2023/04/22 02:40:30;;;;;;;70.90;53.10;;;;;;;3.81;100.00;98840.33;109086;1255;58293;-73
2023/04/22 02:42:57;;;;;;;70.90;53.50;;;;;;;3.79;100.00;98840.95;109235;1256;58275;-73
2023/04/22 02:45:23;;;;;;;68.00;52.10;;;;;;;3.76;100.00;98840.86;109259;1256;58431;-73
2023/04/22 02:47:50;;;;;;;71.10;53.90;;;;;;;3.72;100.00;98839.96;109236;1256;60378;-74
2023/04/22 02:50:16;;;;;;;71.70;55.20;;;;;;;3.71;100.00;98838.80;109069;1257;58351;-73
2023/04/22 02:52:57;;;;;;;75.40;54.60;;;;;;;3.72;100.00;98840.66;109244;1256;58266;-73
2023/04/22 02:55:23;;;;;;;70.50;54.30;;;;;;;3.74;100.00;98838.31;109251;1256;58607;-73
2023/04/22 02:57:52;;;;;;;70.60;52.60;;;;;;;3.73;100.00;98835.36;109074;1255;64993;-73
2023/04/22 03:00:18;;;;;;;65.10;52.20;;;;;;;3.71;100.00;98838.95;109249;1257;60099;-73
2023/04/22 03:02:45;;;;;;;74.30;56.40;;;;;;;3.69;100.00;98840.27;109228;1256;63948;-73
2023/04/22 03:05:12;;;;;;;77.70;57.40;;;;;;;3.66;100.00;98835.33;109221;1257;58345;-72
2023/04/22 03:07:38;;;;;;;71.50;55.20;;;;;;;3.63;100.00;98835.10;109272;1252;58181;-73
2023/04/22 03:10:05;;;;;;;75.40;54.70;;;;;;;3.61;100.00;98833.94;109446;1253;65262;-73
2023/04/22 03:12:35;;;;;;;74.70;55.50;;;;;;;3.61;100.00;98835.86;109544;1252;58946;-72
2023/04/22 03:15:01;;;;;;;71.50;53.90;;;;;;;3.61;100.00;98835.88;109500;1253;63941;-72
2023/04/22 03:17:28;;;;;;;75.20;54.50;;;;;;;3.59;100.00;98841.39;109446;1252;58167;-72
2023/04/22 03:19:55;;;;;;;76.10;53.40;;;;;;;3.58;100.00;98845.52;109508;1252;58418;-72
2023/04/22 03:22:21;;;;;;;74.80;54.30;;;;;;;3.54;100.00;98841.08;109446;1252;64000;-73
2023/04/22 03:24:48;;;;;;;72.70;54.40;;;;;;;3.51;100.00;98840.30;109525;1253;60307;-72
2023/04/22 03:27:14;;;;;;;73.50;54.00;;;;;;;3.49;100.00;98844.27;109480;1252;58306;-73
2023/04/22 03:29:41;;;;;;;74.00;54.70;;;;;;;3.46;100.00;98843.15;109452;1252;58189;-72
2023/04/22 03:32:07;;;;;;;67.70;51.60;;;;;;;3.42;100.00;98840.85;109465;1251;58191;-74
2023/04/22 03:34:34;;;;;;;65.90;52.30;;;;;;;3.39;100.00;98842.73;109489;1252;58197;-73
2023/04/22 03:37:00;;;;;;;68.30;51.40;;;;;;;3.36;100.00;98845.33;109465;1252;58612;-72
2023/04/22 03:39:27;;;;;;;64.80;49.20;;;;;;;3.34;100.00;98840.47;109451;1252;58294;-73
2023/04/22 03:41:53;;;;;;;65.50;51.80;;;;;;;3.33;100.00;98840.50;109455;1253;58090;-73
2023/04/22 03:44:20;;;;;;;66.20;49.60;;;;;;;3.30;100.00;98839.20;109462;1252;58366;-73
2023/04/22 03:46:46;;;;;;;68.30;52.80;;;;;;;3.32;100.00;98843.91;109456;1252;58807;-73
2023/04/22 03:49:12;;;;;;;66.20;50.60;;;;;;;3.34;100.00;98845.40;109480;1252;58147;-72
2023/04/22 03:51:40;;;;;;;62.20;48.50;;;;;;;3.35;100.00;98844.81;109401;1251;64060;-73
2023/04/22 03:54:07;;;;;;;67.50;51.90;;;;;;;3.35;100.00;98848.85;109155;1253;58258;-73
2023/04/22 03:56:33;;;;;;;68.50;53.30;;;;;;;3.36;100.00;98846.54;109474;1252;58686;-73
2023/04/22 03:59:00;;;;;;;66.80;54.40;;;;;;;3.38;100.00;98844.34;109470;1252;65268;-73
2023/04/22 04:01:26;;;;;;;72.80;54.90;;;;;;;3.42;100.00;98847.88;109454;1251;60144;-72
2023/04/22 04:03:53;;;;;;;66.70;53.80;;;;;;;3.48;100.00;98848.18;109449;1252;63059;-72
2023/04/22 04:06:20;;;;;;;78.60;59.80;;;;;;;3.58;100.00;98850.25;109470;1252;58159;-72
2023/04/22 04:08:47;;;;;;;75.60;59.00;;;;;;;3.68;100.00;98850.84;109119;1252;58148;-73
2023/04/22 04:11:13;;;;;;;82.80;62.40;;;;;;;3.78;100.00;98850.30;109455;1253;64031;-73
2023/04/22 04:13:40;;;;;;;78.80;60.20;;;;;;;3.84;100.00;98848.77;109537;1252;59411;-73
2023/04/22 04:16:06;;;;;;;72.50;57.90;;;;;;;3.95;100.00;98847.10;109478;1252;58188;-73
2023/04/22 04:18:33;;;;;;;72.50;57.70;;;;;;;4.07;100.00;98848.19;109428;1252;58578;-73
2023/04/22 04:20:59;;;;;;;70.20;55.60;;;;;;;4.18;100.00;98848.42;109484;1252;58056;-73
2023/04/22 04:23:26;;;;;;;67.90;54.40;;;;;;;4.31;100.00;98845.40;109503;1252;65296;-73
2023/04/22 04:25:54;;;;;;;77.50;60.00;;;;;;;4.48;100.00;98841.64;109431;1252;58136;-73
2023/04/22 04:28:20;;;;;;;72.70;57.40;;;;;;;4.72;100.00;98843.36;109394;1253;64065;-73
2023/04/22 04:30:47;;;;;;;68.80;55.30;;;;;;;5.02;100.00;98843.73;109458;1252;58239;-72
2023/04/22 04:33:15;;;;;;;68.20;54.50;;;;;;;5.31;100.00;98843.45;109500;1252;58159;-73
2023/04/22 04:35:43;;;;;;;63.80;53.70;;;;;;;5.54;100.00;98846.94;109483;1252;63981;-73
2023/04/22 04:38:11;;;;;;;67.20;54.40;;;;;;;5.75;100.00;98845.53;109333;1253;60181;-72
2023/04/22 04:40:51;;;;;;;64.10;53.70;;;;;;;6.05;100.00;98848.08;109349;1252;64073;-73
2023/04/22 04:43:18;;;;;;;60.60;51.30;;;;;;;6.44;100.00;98849.08;109276;1255;58283;-72
2023/04/22 04:45:48;;;;;;;59.30;49.30;;;;;;;6.76;100.00;98850.36;109334;1252;58135;-72
2023/04/22 04:48:15;;;;;;;55.20;48.70;;;;;;;7.07;100.00;98852.92;109435;1251;72971;-73
2023/04/22 04:50:42;;;;;;;63.70;51.00;;;;;;;7.28;100.00;98849.50;109494;1252;60097;-72
2023/04/22 04:53:09;;;;;;;59.20;50.30;;;;;;;7.57;100.00;98853.89;109447;1252;64076;-73
2023/04/22 04:55:37;;;;;;;56.00;48.20;;;;;;;7.87;100.00;98854.43;109472;1252;58215;-73
2023/04/22 04:58:03;;;;;;;59.40;51.90;;;;;;;8.27;99.81;98851.23;109487;1252;58256;-73
2023/04/22 05:00:30;;;;;;;60.20;51.30;;;;;;;8.75;97.89;98850.59;109433;1252;64939;-73
2023/04/22 05:02:56;;;;;;;60.70;52.00;;;;;;;9.25;95.61;98848.74;109459;1252;60230;-73
2023/04/22 05:05:23;;;;;;;61.80;53.60;;;;;;;9.80;93.52;98849.75;109494;1252;58308;-73
2023/04/22 05:07:50;;;;;;;58.50;52.20;;;;;;;10.36;92.13;98845.66;109454;1252;58194;-73
2023/04/22 05:10:17;;;;;;;58.30;51.90;;;;;;;10.96;90.64;98840.44;109438;1252;58229;-73
2023/04/22 05:12:45;;;;;;;55.60;49.70;;;;;;;11.60;89.23;98837.89;109490;1252;64014;-73
2023/04/22 05:15:11;;;;;;;55.50;49.90;;;;;;;12.18;86.51;98837.37;109204;1253;59008;-73
2023/04/22 05:17:38;;;;;;;55.10;49.00;;;;;;;12.63;84.11;98834.48;109472;1252;58330;-73
2023/04/22 05:20:05;;;;;;;56.70;50.80;;;;;;;12.92;82.03;98831.45;109391;1252;58161;-73
2023/04/22 05:22:33;;;;;;;57.70;51.70;;;;;;;13.17;80.55;98831.11;109498;1252;58168;-74
2023/04/22 05:25:00;;;;;;;55.20;49.70;;;;;;;13.42;79.35;98834.42;109470;1252;63989;-73
2023/04/22 05:27:26;;;;;;;51.60;46.20;;;;;;;13.65;78.07;98834.35;109521;1252;58152;-73
2023/04/22 05:29:53;;;;;;;48.40;43.50;;;;;;;13.88;77.32;98831.20;109454;1252;62524;-74
2023/04/22 05:32:19;;;;;;;44.60;40.20;;;;;;;14.16;76.33;98826.36;109477;1252;58465;-74
2023/04/22 05:34:46;;;;;;;89.50;81.80;;;;;;;14.46;74.70;98826.13;109500;1252;58265;-73
2023/04/22 05:37:12;;;;;;;46.40;41.40;;;;;;;14.88;74.20;98824.34;109481;1252;66394;-73
2023/04/22 05:39:39;;;;;;;33.60;30.20;;;;;;;15.18;72.00;98833.70;109451;1252;58166;-73
2023/04/22 05:42:05;;;;;;;35.60;31.70;;;;;;;15.23;70.35;98832.56;109486;1252;73126;-74
2023/04/22 05:44:32;;;;;;;29.70;26.70;;;;;;;15.27;69.72;98831.80;109453;1253;58170;-74
2023/04/22 05:46:59;;;;;;;29.40;26.50;;;;;;;15.35;68.62;98831.84;109478;1252;58057;-74
2023/04/22 05:49:25;;;;;;;30.60;27.70;;;;;;;15.47;67.56;98829.83;109489;1252;65238;-73
2023/04/22 05:51:52;;;;;;;28.60;25.70;;;;;;;15.53;66.83;98826.06;109338;1252;60421;-73
2023/04/22 05:54:20;;;;;;;29.40;26.50;;;;;;;15.74;66.54;98826.85;109486;1252;58136;-74
2023/04/22 05:56:47;;;;;;;35.90;32.40;;;;;;;16.07;66.34;98827.61;109342;1252;58203;-74
2023/04/22 05:59:13;;;;;;;34.30;30.80;;;;;;;16.40;65.37;98833.70;109459;1252;58190;-74
2023/04/22 06:01:40;;;;;;;33.90;30.60;;;;;;;16.63;64.50;98831.86;109507;1252;65317;-74
2023/04/22 06:04:08;;;;;;;31.00;27.90;;;;;;;16.75;63.16;98829.86;109489;1252;58900;-74
2023/04/22 06:06:35;;;;;;;31.20;28.10;;;;;;;16.72;62.82;98831.45;109372;1252;64096;-75
2023/04/22 06:09:02;;;;;;;29.10;26.00;;;;;;;16.86;62.60;98826.17;109429;1253;58288;-74
2023/04/22 06:11:29;;;;;;;30.80;27.90;;;;;;;17.00;62.08;98827.17;109499;1252;58665;-73
2023/04/22 06:13:55;;;;;;;29.70;26.60;;;;;;;17.22;61.44;98830.09;109482;1252;65322;-73
2023/04/22 06:16:22;;;;;;;34.90;31.20;;;;;;;17.47;60.86;98831.24;109502;1252;60138;-74
2023/04/22 06:18:48;;;;;;;30.90;27.80;;;;;;;17.53;59.78;98832.42;109448;1252;64026;-74
2023/04/22 06:21:15;;;;;;;32.00;28.70;;;;;;;17.55;59.23;98830.58;109445;1255;58176;-74
2023/04/22 06:23:42;;;;;;;30.90;27.80;;;;;;;17.52;58.50;98828.53;109477;1252;58227;-73
2023/04/22 06:26:08;;;;;;;32.20;28.90;;;;;;;17.46;57.76;98830.39;109538;1252;64124;-73
2023/04/22 06:28:35;;;;;;;30.40;27.30;;;;;;;17.26;57.30;98832.94;109484;1252;60580;-73
2023/04/22 06:31:01;;;;;;;27.40;24.70;;;;;;;17.17;57.52;98830.77;109518;1252;58187;-73
2023/04/22 06:33:27;;;;;;;26.70;23.80;;;;;;;17.25;57.34;98829.29;109471;1251;58265;-73
2023/04/22 06:35:54;;;;;;;27.10;24.30;;;;;;;17.33;57.36;98826.46;109445;1252;58221;-73
2023/04/22 06:38:20;;;;;;;26.20;23.50;;;;;;;17.36;56.95;98822.39;109469;1252;58147;-73
2023/04/22 06:40:47;;;;;;;24.90;22.40;;;;;;;17.38;56.98;98819.75;109521;1252;58159;-74
2023/04/22 06:43:13;;;;;;;24.90;22.20;;;;;;;17.42;56.41;98823.26;109344;1252;59270;-73
2023/04/22 06:45:41;;;;;;;26.10;22.90;;;;;;;17.42;56.01;98827.10;109489;1251;58277;-73
2023/04/22 06:48:07;;;;;;;27.30;24.50;;;;;;;17.36;56.12;98831.55;109513;1251;58042;-73
2023/04/22 06:50:35;;;;;;;25.10;22.50;;;;;;;17.31;56.46;98830.27;109473;1251;64013;-73
2023/04/22 06:53:01;;;;;;;24.70;22.00;;;;;;;17.09;56.57;98831.15;109374;1253;58916;-73
2023/04/22 06:55:28;;;;;;;21.50;19.20;;;;;;;16.77;56.41;98832.70;109462;1252;64029;-73
2023/04/22 06:57:55;;;;;;;22.20;19.90;;;;;;;16.48;56.46;98831.66;109361;1253;58202;-73
2023/04/22 07:00:21;;;;;;;21.30;19.20;;;;;;;16.23;56.51;98829.55;109501;1251;58225;-73
2023/04/22 07:02:47;;;;;;;20.00;17.90;;;;;;;16.05;56.45;98831.80;109521;1252;65611;-73
2023/04/22 07:05:15;;;;;;;22.00;17.70;;;;;;;15.85;56.00;98831.29;109506;1252;58274;-73
2023/04/22 07:07:41;;;;;;;20.00;17.90;;;;;;;15.62;56.04;98833.71;109444;1252;62863;-73
2023/04/22 07:10:09;;;;;;;18.60;16.70;;;;;;;15.45;56.58;98837.35;109311;1253;58184;-73
2023/04/22 07:12:36;;;;;;;17.30;15.50;;;;;;;15.36;56.80;98835.83;109249;1251;58380;-73
2023/04/22 07:15:02;;;;;;;16.70;15.00;;;;;;;15.25;56.74;98837.52;109451;1252;58115;-73
2023/04/22 07:17:29;;;;;;;16.10;14.40;;;;;;;15.17;57.29;98834.52;109178;1251;58967;-75
2023/04/22 07:19:55;;;;;;;17.50;15.60;;;;;;;15.09;57.13;98833.75;109471;1251;64136;-75
2023/04/22 07:22:22;;;;;;;18.30;15.60;;;;;;;14.99;57.24;98833.00;109180;1251;58368;-73
2023/04/22 07:24:48;;;;;;;16.70;15.00;;;;;;;15.00;57.90;98834.39;109482;1252;58190;-74
2023/04/22 07:27:15;;;;;;;16.10;14.00;;;;;;;15.08;58.32;98835.98;109462;1252;58047;-74
2023/04/22 07:29:41;;;;;;;18.00;15.20;;;;;;;15.11;58.12;98835.89;109483;1252;61361;-74
2023/04/22 07:32:08;;;;;;;16.30;14.50;;;;;;;15.12;58.07;98835.08;109475;1251;64047;-74
2023/04/22 07:34:35;;;;;;;17.30;15.50;;;;;;;15.17;58.62;98839.81;109419;1251;58184;-74
2023/04/22 07:37:01;;;;;;;16.60;14.80;;;;;;;15.22;58.47;98838.38;109459;1252;58229;-74
2023/04/22 07:39:28;;;;;;;16.30;14.60;;;;;;;15.17;58.24;98834.80;109469;1252;64448;-74
2023/04/22 07:41:56;;;;;;;17.70;14.20;;;;;;;15.19;58.82;98835.93;109487;1252;58191;-72
2023/04/22 07:44:23;;;;;;;17.00;15.40;;;;;;;15.31;58.87;98835.56;109447;1252;64061;-72
2023/04/22 07:46:49;;;;;;;15.40;13.20;;;;;;;15.40;58.65;98830.80;109447;1251;58280;-72
2023/04/22 07:49:16;;;;;;;14.80;12.60;;;;;;;15.45;58.29;98833.61;109389;1252;58152;-73
2023/04/22 07:51:43;;;;;;;12.20;10.90;;;;;;;15.48;58.34;98832.60;109460;1252;65229;-73
2023/04/22 07:54:10;;;;;;;13.20;11.90;;;;;;;15.54;57.65;98832.02;109300;1253;58855;-73
2023/04/22 07:56:36;;;;;;;12.30;11.00;;;;;;;15.57;57.50;98829.46;109447;1252;64020;-73
2023/04/22 07:59:03;;;;;;;14.20;10.50;;;;;;;15.67;58.10;98825.93;109358;1252;58258;-73
2023/04/22 08:01:30;;;;;;;10.10;8.60;;;;;;;15.80;57.26;98831.56;109472;1251;59253;-75
2023/04/22 08:03:57;;;;;;;9.60;7.60;;;;;;;15.86;56.54;98828.14;109418;1252;65228;-72
2023/04/22 08:06:23;;;;;;;9.10;8.20;;;;;;;15.96;55.96;98826.65;109445;1251;60580;-72
2023/04/22 08:08:50;;;;;;;9.00;8.10;;;;;;;16.08;55.74;98826.63;109252;1256;63056;-74
2023/04/22 08:11:16;;;;;;;9.10;8.20;;;;;;;16.22;55.30;98827.30;109258;1255;58277;-72
2023/04/22 08:13:43;;;;;;;9.60;8.60;;;;;;;16.32;54.51;98831.76;109306;1255;58235;-72
2023/04/22 08:16:09;;;;;;;9.40;8.10;;;;;;;16.44;54.55;98829.79;109296;1254;64061;-73
2023/04/22 08:18:36;;;;;;;9.80;7.90;;;;;;;16.51;52.85;98827.32;109077;1255;59103;-72
2023/04/22 08:21:02;;;;;;;9.80;7.80;;;;;;;16.48;52.00;98830.29;109308;1255;64071;-73
2023/04/22 08:23:29;;;;;;;8.00;7.20;;;;;;;16.43;51.89;98828.26;109309;1256;58304;-73
2023/04/22 08:25:56;;;;;;;9.00;7.90;;;;;;;16.50;52.28;98826.48;109202;1254;58163;-73
2023/04/22 08:28:22;;;;;;;10.90;8.00;;;;;;;16.64;52.38;98827.17;109283;1254;63858;-73
2023/04/22 08:30:49;;;;;;;8.30;7.10;;;;;;;16.78;52.23;98824.73;109144;1254;60168;-72
2023/04/22 08:33:15;;;;;;;8.60;6.60;;;;;;;16.85;50.95;98823.52;109305;1254;64152;-73
2023/04/22 08:35:42;;;;;;;7.30;6.40;;;;;;;16.89;50.75;98821.45;109284;1254;58162;-74
2023/04/22 08:38:09;;;;;;;6.90;5.60;;;;;;;16.94;49.88;98818.44;109337;1254;58741;-73
2023/04/22 08:40:39;;;;;;;6.30;5.60;;;;;;;16.98;49.65;98816.24;109482;1252;65270;-73
2023/04/22 08:43:06;;;;;;;7.20;5.40;;;;;;;17.10;49.39;98816.13;109470;1252;60160;-73
2023/04/22 08:45:32;;;;;;;6.10;5.50;;;;;;;17.21;49.14;98814.92;109457;1251;63877;-74
2023/04/22 08:47:59;;;;;;;5.90;4.40;;;;;;;17.32;49.04;98813.45;109348;1253;58212;-73
2023/04/22 08:50:28;;;;;;;6.70;5.90;;;;;;;17.46;48.36;98809.23;109393;1253;58227;-73
2023/04/22 08:52:55;;;;;;;5.40;4.80;;;;;;;17.55;48.39;98807.92;109410;1252;64463;-73
2023/04/22 08:55:21;;;;;;;5.00;4.30;;;;;;;17.70;47.95;98806.99;109471;1252;58614;-73
2023/04/22 08:57:49;;;;;;;5.30;4.40;;;;;;;17.87;48.01;98809.66;109516;1252;64969;-74
2023/04/22 09:00:17;;;;;;;7.20;4.60;;;;;;;18.01;46.90;98811.83;109493;1253;58127;-74
2023/04/22 09:02:45;;;;;;;4.80;4.40;;;;;;;18.10;46.34;98807.22;109470;1252;58107;-72
2023/04/22 09:05:13;;;;;;;5.60;5.00;;;;;;;18.17;45.94;98805.59;109456;1252;64878;-73
2023/04/22 09:07:40;;;;;;;6.50;4.90;;;;;;;18.25;46.36;98804.55;109466;1253;59083;-74
2023/04/22 09:10:07;;;;;;;5.50;4.50;;;;;;;18.38;46.31;98803.03;109472;1252;64555;-73
2023/04/22 09:12:34;;;;;;;4.40;4.00;;;;;;;18.46;44.91;98802.41;109460;1252;58058;-73
2023/04/22 09:15:00;;;;;;;4.20;3.70;;;;;;;18.57;44.28;98799.71;109533;1252;58087;-73
2023/04/22 09:17:36;;;;;;;4.80;4.40;;;;;;;18.62;43.31;98794.96;109482;1251;64994;-73
2023/04/22 09:20:08;;;;;;;5.50;4.00;;;;;;;18.67;42.94;98793.85;109358;1252;145362;-73
2023/04/22 09:22:38;;;;;;;4.70;4.30;;;;;;;18.67;42.13;98790.73;109413;1252;64112;-73
2023/04/22 09:25:06;;;;;;;6.70;5.30;;;;;;;18.68;42.02;98787.20;109467;1252;58254;-73
2023/04/22 09:27:34;;;;;;;5.80;5.00;;;;;;;18.75;42.52;98783.40;109463;1251;58083;-73
2023/04/22 09:30:07;;;;;;;5.70;5.20;;;;;;;18.78;41.58;98788.00;109485;1252;65287;-73
2023/04/22 09:32:34;;;;;;;4.90;4.50;;;;;;;18.71;41.15;98783.66;109389;1251;59018;-73
2023/04/22 09:35:01;;;;;;;5.00;4.50;;;;;;;18.65;40.68;98783.70;109571;1251;62825;-73
2023/04/22 09:37:27;;;;;;;4.70;4.30;;;;;;;18.59;40.03;98783.84;109535;1251;58201;-73
2023/04/22 09:39:54;;;;;;;4.20;3.80;;;;;;;18.55;39.92;98781.52;109589;1250;58443;-74
2023/04/22 09:42:21;;;;;;;5.20;4.30;;;;;;;18.57;39.55;98778.42;109600;1250;65231;-73
2023/04/22 09:44:51;;;;;;;6.40;4.50;;;;;;;18.58;39.34;98774.02;109220;1256;59990;-73
2023/04/22 09:47:19;;;;;;;7.30;4.50;;;;;;;18.59;39.15;98768.73;109080;1255;64056;-73
2023/04/22 09:49:47;;;;;;;4.30;3.80;;;;;;;18.59;38.77;98771.02;109209;1255;58235;-73
2023/04/22 09:52:23;;;;;;;4.60;4.10;;;;;;;18.61;38.36;98771.00;109169;1256;58201;-74
2023/04/22 09:54:53;;;;;;;7.10;6.30;;;;;;;18.65;38.84;98767.38;109098;1255;65235;-73
2023/04/22 09:57:20;;;;;;;4.20;3.50;;;;;;;18.75;38.89;98765.07;109110;1256;58934;-73
2023/04/22 09:59:50;;;;;;;5.70;3.40;;;;;;;18.81;38.56;98760.81;109182;1256;62812;-73
2023/04/22 10:02:17;;;;;;;4.70;3.20;;;;;;;18.90;38.48;98754.32;109174;1256;58469;-73
2023/04/22 10:04:46;;;;;;;5.90;4.00;;;;;;;18.95;37.97;98758.09;109197;1255;58222;-73
2023/04/22 10:07:14;;;;;;;4.60;3.60;;;;;;;19.00;38.06;98755.98;109121;1255;64021;-73
2023/04/22 10:09:40;;;;;;;5.90;3.90;;;;;;;19.05;37.88;98750.98;109205;1256;60123;-73
2023/04/22 10:12:07;;;;;;;4.70;3.70;;;;;;;19.10;37.66;98752.23;109181;1256;64019;-73
2023/04/22 10:14:33;;;;;;;4.80;3.70;;;;;;;19.18;38.34;98752.14;109224;1255;58054;-73
2023/04/22 10:17:02;;;;;;;4.90;4.00;;;;;;;19.30;38.22;98752.79;109254;1250;58256;-73
2023/04/22 10:19:30;;;;;;;4.40;3.60;;;;;;;19.33;37.82;98753.20;109570;1250;63994;-73
2023/04/22 10:22:02;;;;;;;4.70;3.70;;;;;;;19.35;37.20;98751.71;109563;1251;60118;-73
2023/04/22 10:24:34;;;;;;;5.50;3.80;;;;;;;19.29;36.71;98747.45;109605;1250;62829;-73
2023/04/22 10:27:07;;;;;;;4.90;3.40;;;;;;;19.21;36.25;98750.85;109595;1250;58275;-73
2023/04/22 10:29:37;;;;;;;4.40;3.70;;;;;;;19.13;36.00;98744.89;109516;1251;58220;-73
2023/04/22 10:32:09;;;;;;;;;;;;;;;19.13;35.36;98741.55;109614;1250;65266;-73
2023/04/22 10:34:37;;;;;;;4.40;4.00;;;;;;;19.04;35.19;98739.55;109623;1250;58641;-73
2023/04/22 10:37:06;;;;;;;3.70;3.40;;;;;;;19.05;35.20;98736.85;109565;1250;62887;-73
2023/04/22 10:39:34;;;;;;;4.10;3.20;;;;;;;19.14;35.09;98734.83;109394;1251;58319;-73
2023/04/22 10:42:11;;;;;;;3.70;3.10;;;;;;;19.22;35.09;98732.52;109591;1251;58145;-73
2023/04/22 10:44:51;;;;;;;5.30;3.50;;;;;;;19.35;35.15;98735.15;109237;1250;65259;-73
2023/04/22 10:47:27;;;;;;;3.50;3.20;;;;;;;19.39;34.76;98733.89;109535;1251;60437;-73
2023/04/22 10:50:17;;;;;;;3.70;3.30;;;;;;;19.41;34.46;98731.10;109562;1250;63998;-73
2023/04/22 10:52:56;;;;;;;4.70;3.40;;;;;;;19.44;34.48;98727.71;109570;1250;58216;-73
2023/04/22 10:55:23;;;;;;;4.20;3.20;;;;;;;19.50;34.93;98718.16;109595;1251;58340;-73
2023/04/22 10:57:51;;;;;;;4.50;3.50;;;;;;;19.60;36.10;98718.04;109600;1250;65226;-73
2023/04/22 11:00:21;;;;;;;5.40;4.20;;;;;;;19.71;35.97;98718.48;109590;1251;60079;-73
2023/04/22 11:03:09;;;;;;;4.90;4.40;;;;;;;19.85;36.77;98716.61;109581;1251;64106;-73
2023/04/22 11:05:37;;;;;;;4.70;3.40;;;;;;;19.99;37.87;98709.95;109512;1254;58167;-73
2023/04/22 11:08:06;;;;;;;4.30;3.40;;;;;;;20.15;37.99;98705.86;109534;1255;58242;-73
2023/04/22 11:10:48;;;;;;;3.40;3.10;;;;;;;20.23;36.01;98700.27;109533;1251;65288;-73
2023/04/22 11:13:17;;;;;;;4.30;3.20;;;;;;;20.06;33.93;98707.74;109527;1250;59801;-73
2023/04/22 11:15:47;;;;;;;3.50;3.20;;;;;;;19.92;34.03;98701.44;109565;1251;62489;-73